Time;durP1;ratioP1;P1;durP2;ratioP2;P2;SDS_P1;SDS_P2;PMS_P1;PMS_P2;Temp;Humidity;BMP_temperature;BMP_pressure;BME280_temperature;BME280_humidity;BME280_pressure;Samples;Min_cycle;Max_cycle;Signal;HPM_P1;HPM_P2
2020/12/18 00:02:26;;;;;;;21.65;14.30;;;;;;;;;;4988805;28;20108;-76
2020/12/18 00:04:52;;;;;;;16.30;11.63;;;;;;;;;;4989159;28;20041;-76
2020/12/18 00:07:19;;;;;;;15.43;11.07;;;;;;;;;;4991660;28;20030;-76
2020/12/18 00:09:45;;;;;;;15.70;11.15;;;;;;;;;;4991442;28;20042;-75
2020/12/18 00:12:11;;;;;;;18.17;13.00;;;;;;;;;;4990240;28;20045;-76
2020/12/18 00:14:37;;;;;;;16.83;11.82;;;;;;;;;;4990082;28;20083;-76
2020/12/18 00:17:05;;;;;;;22.63;15.25;;;;;;;;;;4990059;28;20030;-76
2020/12/18 00:19:31;;;;;;;22.80;15.00;;;;;;;;;;4991551;28;20036;-76
2020/12/18 00:21:58;;;;;;;21.63;15.07;;;;;;;;;;4989807;28;20027;-75
2020/12/18 00:24:24;;;;;;;21.73;15.10;;;;;;;;;;4989118;28;20026;-74
2020/12/18 00:26:50;;;;;;;23.38;15.18;;;;;;;;;;4991034;28;20046;-75
2020/12/18 00:29:16;;;;;;;21.92;14.93;;;;;;;;;;4990944;28;20120;-74
2020/12/18 00:31:42;;;;;;;21.70;15.98;;;;;;;;;;4991114;28;20519;-76
2020/12/18 00:34:08;;;;;;;24.42;17.20;;;;;;;;;;4991521;28;20030;-76
2020/12/18 00:36:34;;;;;;;21.45;15.45;;;;;;;;;;4990661;28;20655;-75
2020/12/18 00:39:00;;;;;;;21.60;14.68;;;;;;;;;;4990654;28;20062;-75
2020/12/18 00:41:27;;;;;;;22.45;15.65;;;;;;;;;;4992302;28;20022;-75
2020/12/18 00:43:53;;;;;;;20.95;14.27;;;;;;;;;;4993720;28;20057;-77
2020/12/18 00:46:19;;;;;;;19.00;12.02;;;5.40;99.90;;;;;;4993760;28;20031;-77
2020/12/18 00:48:44;;;;;;;16.50;11.02;;;4.70;99.90;;;;;;4992011;28;20038;-75
2020/12/18 00:51:15;;;;;;;17.33;11.75;;;4.80;99.90;;;;;;4991110;28;20034;-75
2020/12/18 00:53:41;;;;;;;19.63;12.18;;;4.70;99.90;;;;;;4991166;28;20022;-75
2020/12/18 00:56:07;;;;;;;16.40;10.40;;;4.50;99.90;;;;;;4989306;28;20099;-76
2020/12/18 00:58:33;;;;;;;15.40;10.07;;;4.60;99.90;;;;;;4990807;28;20412;-75
2020/12/18 01:01:00;;;;;;;13.95;9.35;;;4.60;99.90;;;;;;4990987;28;20018;-75
2020/12/18 01:03:25;;;;;;;12.73;9.60;;;4.60;99.90;;;;;;4989670;28;20076;-74
2020/12/18 01:05:51;;;;;;;16.38;10.57;;;4.50;99.90;;;;;;5007246;28;20485;-75
2020/12/18 01:08:17;;;;;;;16.33;11.40;;;4.50;99.90;;;;;;5010237;28;20030;-74
2020/12/18 01:10:42;;;;;;;14.40;10.98;;;4.50;99.90;;;;;;5009678;28;20075;-76
2020/12/18 01:13:08;;;;;;;16.48;10.65;;;4.50;99.90;;;;;;5009841;28;20137;-76
2020/12/18 01:15:33;;;;;;;26.73;10.57;;;4.50;99.90;;;;;;5008401;28;20026;-75
2020/12/18 01:17:59;;;;;;;12.85;9.93;;;3.90;99.90;;;;;;5008516;28;20029;-75
2020/12/18 01:20:25;;;;;;;52.22;11.73;;;3.90;99.90;;;;;;5010005;28;20569;-75
2020/12/18 01:22:51;;;;;;;14.75;10.90;;;;;;;;;;5008901;28;20026;-76
2020/12/18 01:25:16;;;;;;;14.82;10.60;;;3.90;99.90;;;;;;5009782;28;20032;-75
2020/12/18 01:27:42;;;;;;;17.13;11.38;;;3.70;99.90;;;;;;5009462;28;20026;-76
2020/12/18 01:30:08;;;;;;;15.07;10.50;;;3.70;99.90;;;;;;5008365;28;20041;-75
2020/12/18 01:32:33;;;;;;;15.48;10.95;;;3.60;99.90;;;;;;5010074;28;20029;-75
2020/12/18 01:34:59;;;;;;;16.23;12.00;;;3.80;99.90;;;;;;5007820;28;20071;-76
2020/12/18 01:37:24;;;;;;;13.80;10.32;;;3.60;99.90;;;;;;5009504;28;20030;-75
2020/12/18 01:39:50;;;;;;;14.85;10.25;;;3.70;99.90;;;;;;5008793;28;20567;-75
2020/12/18 01:42:16;;;;;;;13.77;10.27;;;3.80;99.90;;;;;;5009831;28;20018;-75
2020/12/18 01:44:41;;;;;;;12.07;9.45;;;3.80;99.90;;;;;;5009240;28;20105;-77
2020/12/18 01:47:28;;;;;;;15.13;10.45;;;4.10;99.90;;;;;;5009488;28;20093;-76
2020/12/18 01:49:54;;;;;;;13.90;9.70;;;4.00;99.90;;;;;;5007794;28;20116;-73
2020/12/18 01:52:22;;;;;;;14.20;9.80;;;4.00;99.90;;;;;;5007773;28;20620;-74
2020/12/18 01:54:47;;;;;;;12.65;9.10;;;4.30;99.90;;;;;;5006877;28;20040;-76
2020/12/18 01:57:13;;;;;;;12.90;9.07;;;4.30;99.90;;;;;;5007380;28;20563;-76
2020/12/18 01:59:39;;;;;;;14.60;10.60;;;4.40;99.90;;;;;;5007586;28;20522;-75
2020/12/18 02:02:04;;;;;;;12.55;9.10;;;4.20;99.90;;;;;;5009141;28;20038;-74
2020/12/18 02:04:30;;;;;;;12.45;9.05;;;4.30;99.90;;;;;;5007562;28;20060;-74
2020/12/18 02:07:00;;;;;;;14.00;10.60;;;4.40;99.90;;;;;;5008058;28;20500;-77
2020/12/18 02:09:25;;;;;;;15.43;10.73;;;3.70;99.90;;;;;;5009738;28;20065;-78
2020/12/18 02:11:52;;;;;;;14.82;11.15;;;;;;;;;;5007560;28;20072;-76
2020/12/18 02:14:19;;;;;;;14.65;10.85;;;;;;;;;;5009077;28;20026;-77
2020/12/18 02:16:44;;;;;;;15.63;11.48;;;3.40;99.90;;;;;;5009249;28;20033;-77
2020/12/18 02:19:14;;;;;;;16.15;11.82;;;2.70;99.90;;;;;;5007496;28;20037;-77
2020/12/18 02:21:39;;;;;;;15.32;11.68;;;2.90;99.90;;;;;;5009502;28;20017;-76
2020/12/18 02:24:05;;;;;;;16.65;12.00;;;2.90;99.90;;;;;;5006822;28;20445;-78
2020/12/18 02:26:31;;;;;;;16.05;11.65;;;2.80;99.90;;;;;;5008591;28;20037;-74
2020/12/18 02:28:56;;;;;;;14.20;10.57;;;3.00;99.90;;;;;;5008470;28;20053;-77
2020/12/18 02:31:22;;;;;;;12.50;9.75;;;3.30;99.90;;;;;;5008593;28;20049;-76
2020/12/18 02:33:47;;;;;;;12.48;9.48;;;3.50;99.90;;;;;;5008483;28;20760;-74
2020/12/18 02:36:13;;;;;;;11.75;8.68;;;;;;;;;;5007363;28;20033;-75
2020/12/18 02:38:39;;;;;;;11.75;8.82;;;;;;;;;;5008266;28;20076;-76
2020/12/18 02:41:05;;;;;;;12.80;10.07;;;;;;;;;;5003605;28;20026;-75
2020/12/18 02:43:32;;;;;;;12.90;9.45;;;;;;;;;;4970114;28;20033;-75
2020/12/18 02:45:58;;;;;;;12.40;9.15;;;;;;;;;;5000751;28;20023;-76
2020/12/18 02:48:27;;;;;;;12.43;8.93;;;;;;;;;;4999875;28;20019;-77
2020/12/18 02:50:53;;;;;;;13.40;9.15;;;;;;;;;;4969659;28;20026;-77
2020/12/18 02:53:21;;;;;;;11.75;9.43;;;;;;;;;;4968894;28;20027;-77
2020/12/18 02:55:47;;;;;;;11.73;9.05;;;;;;;;;;4999784;28;20027;-74
2020/12/18 02:58:14;;;;;;;29.58;9.40;;;;;;;;;;5000594;28;20126;-74
2020/12/18 03:00:40;;;;;;;15.90;9.18;;;;;;;;;;4969184;28;20023;-75
2020/12/18 03:03:07;;;;;;;22.42;11.07;;;;;;;;;;5002424;28;20166;-74
2020/12/18 03:05:33;;;;;;;24.90;12.25;;;;;;;;;;4986974;28;20033;-75
2020/12/18 03:07:59;;;;;;;14.50;10.75;;;;;;;;;;5006947;28;20124;-74
2020/12/18 03:10:25;;;;;;;15.98;11.48;;;;;;;;;;4991038;28;20084;-75
2020/12/18 03:12:51;;;;;;;29.92;12.05;;;;;;;;;;4989744;28;20026;-74
2020/12/18 03:15:18;;;;;;;26.27;13.10;;;;;;;;;;4991158;28;20136;-74
2020/12/18 03:17:44;;;;;;;18.80;13.38;;;3.70;99.90;;;;;;4991025;28;20037;-76
2020/12/18 03:20:10;;;;;;;25.13;13.52;;;;;;;;;;4990977;28;20027;-74
2020/12/18 03:22:37;;;;;;;18.48;12.80;;;;;;;;;;4990774;28;20149;-76
2020/12/18 03:25:03;;;;;;;16.15;12.13;;;;;;;;;;4993672;28;20048;-74
2020/12/18 03:27:29;;;;;;;17.33;12.13;;;;;;;;;;5010375;28;20022;-75
2020/12/18 03:29:55;;;;;;;16.88;12.05;;;;;;;;;;5010375;28;20265;-75
2020/12/18 03:32:21;;;;;;;18.63;12.05;;;;;;;;;;5010124;28;20032;-75
2020/12/18 03:34:47;;;;;;;16.48;11.93;;;;;;;;;;5008700;28;20033;-76
2020/12/18 03:37:13;;;;;;;16.02;11.30;;;;;;;;;;5010217;28;20512;-74
2020/12/18 03:39:39;;;;;;;15.70;11.65;;;;;;;;;;5010107;28;20362;-75
2020/12/18 03:42:05;;;;;;;13.98;10.40;;;;;;;;;;5010264;28;20041;-76
2020/12/18 03:44:32;;;;;;;13.23;10.32;;;;;;;;;;5010039;28;20516;-75
2020/12/18 03:46:58;;;;;;;14.57;10.75;;;;;;;;;;5010014;28;20101;-74
2020/12/18 03:49:24;;;;;;;13.93;10.45;;;;;;;;;;5010011;28;20061;-75
2020/12/18 03:51:50;;;;;;;12.65;9.10;;;;;;;;;;5010094;28;20037;-75
2020/12/18 03:54:16;;;;;;;14.20;9.82;;;;;;;;;;5009959;28;20033;-76
2020/12/18 03:56:42;;;;;;;13.07;10.48;;;;;;;;;;5009828;28;20033;-75
2020/12/18 03:59:08;;;;;;;11.60;9.57;;;;;;;;;;5008378;28;20120;-75
2020/12/18 04:01:34;;;;;;;12.93;10.07;;;;;;;;;;5012686;28;20361;-75
2020/12/18 04:04:00;;;;;;;11.75;9.57;;;;;;;;;;5001089;28;20026;-76
2020/12/18 04:06:25;;;;;;;11.35;8.50;;;3.10;99.90;;;;;;4996675;28;20022;-75
2020/12/18 04:08:51;;;;;;;12.13;8.88;;;4.30;99.90;;;;;;4991975;28;20033;-74
2020/12/18 04:11:17;;;;;;;11.27;8.68;;;4.40;99.90;;;;;;4990538;28;20034;-76
2020/12/18 04:13:42;;;;;;;11.27;8.88;;;4.50;99.90;;;;;;4989978;28;20026;-76
2020/12/18 04:16:08;;;;;;;12.40;9.57;;;4.40;99.90;;;;;;4989442;28;20460;-75
2020/12/18 04:18:34;;;;;;;11.57;8.90;;;3.90;99.90;;;;;;4991217;28;20044;-74
2020/12/18 04:20:59;;;;;;;15.38;9.27;;;4.20;99.90;;;;;;4991464;28;20106;-75
2020/12/18 04:23:26;;;;;;;13.32;10.30;;;4.30;99.90;;;;;;4991709;28;20053;-75
2020/12/18 04:25:52;;;;;;;13.70;10.05;;;4.40;99.90;;;;;;4990900;28;20023;-76
2020/12/18 04:28:18;;;;;;;12.88;9.93;;;4.50;99.90;;;;;;4991807;28;20023;-76
2020/12/18 04:30:43;;;;;;;12.75;8.52;;;4.40;99.90;;;;;;4991731;28;20114;-74
2020/12/18 04:33:09;;;;;;;11.10;8.85;;;4.70;99.90;;;;;;4989695;28;20027;-75
2020/12/18 04:35:35;;;;;;;12.93;9.60;;;4.90;99.90;;;;;;4989713;28;20030;-75
2020/12/18 04:38:01;;;;;;;11.02;9.05;;;5.00;99.90;;;;;;4991105;28;20488;-76
2020/12/18 04:40:29;;;;;;;12.60;9.38;;;4.80;99.90;;;;;;4990559;28;20030;-76
2020/12/18 04:42:55;;;;;;;14.35;10.10;;;4.70;99.90;;;;;;4991312;28;20022;-75
2020/12/18 04:45:21;;;;;;;14.75;11.20;;;4.70;99.90;;;;;;4990181;28;20072;-76
2020/12/18 04:47:52;;;;;;;15.20;10.65;;;4.60;99.90;;;;;;4991424;28;20022;-75
2020/12/18 04:50:18;;;;;;;14.95;11.10;;;4.40;99.90;;;;;;4990691;28;20644;-76
2020/12/18 04:52:45;;;;;;;13.50;9.98;;;4.50;99.90;;;;;;4989368;28;20030;-75
2020/12/18 04:55:12;;;;;;;13.43;9.98;;;4.60;99.90;;;;;;4989355;28;20500;-75
2020/12/18 04:57:42;;;;;;;14.48;10.48;;;4.70;99.90;;;;;;4990991;28;20477;-75
2020/12/18 05:00:07;;;;;;;14.02;10.35;;;4.70;99.90;;;;;;4989337;28;20037;-76
2020/12/18 05:02:34;;;;;;;13.57;10.25;;;4.80;99.90;;;;;;4990562;28;20023;-75
2020/12/18 05:05:00;;;;;;;12.23;9.47;;;5.00;99.90;;;;;;4989191;28;20046;-75
2020/12/18 05:07:27;;;;;;;12.25;8.45;;;5.10;99.90;;;;;;4990842;28;20129;-75
2020/12/18 05:09:53;;;;;;;9.82;7.38;;;5.00;99.90;;;;;;4990386;28;20037;-76
2020/12/18 05:12:19;;;;;;;15.32;7.80;;;5.00;99.90;;;;;;4990645;28;20038;-75
2020/12/18 05:14:44;;;;;;;12.07;8.57;;;4.90;99.90;;;;;;4989248;28;20500;-75
2020/12/18 05:17:11;;;;;;;11.05;8.68;;;4.80;99.90;;;;;;4989339;28;20053;-75
2020/12/18 05:19:44;;;;;;;10.35;8.02;;;4.80;99.90;;;;;;4990253;28;20393;-76
2020/12/18 05:22:11;;;;;;;13.63;10.55;;;;;;;;;;4990616;28;20030;-74
2020/12/18 05:24:37;;;;;;;15.60;10.88;;;;;;;;;;4989738;28;20022;-75
2020/12/18 05:27:08;;;;;;;17.92;12.98;;;;;;;;;;4990014;28;20027;-76
2020/12/18 05:29:37;;;;;;;14.85;10.93;;;;;;;;;;4990759;28;20023;-75
2020/12/18 05:32:03;;;;;;;15.70;10.35;;;;;;;;;;4989249;28;20319;-75
2020/12/18 05:34:30;;;;;;;17.13;12.02;;;;;;;;;;4988873;28;20030;-74
2020/12/18 05:36:56;;;;;;;13.15;10.20;;;;;;;;;;4989130;28;20648;-75
2020/12/18 05:39:22;;;;;;;28.25;20.55;;;4.70;99.90;;;;;;4988636;28;20490;-75
2020/12/18 05:42:02;;;;;;;15.57;12.02;;;3.80;99.90;;;;;;4990298;28;20053;-75
2020/12/18 05:44:28;;;;;;;13.18;10.15;;;4.10;99.90;;;;;;4989261;28;20169;-76
2020/12/18 05:47:03;;;;;;;16.40;11.60;;;4.30;99.90;;;;;;4989991;28;20026;-75
2020/12/18 05:49:31;;;;;;;14.15;10.07;;;4.40;99.90;;;;;;4989990;28;20265;-75
2020/12/18 05:51:57;;;;;;;14.48;10.95;;;4.40;99.90;;;;;;4989938;28;20069;-76
2020/12/18 05:54:31;;;;;;;14.52;9.93;;;4.50;99.90;;;;;;4988155;28;20117;-75
2020/12/18 05:56:56;;;;;;;13.30;9.45;;;4.70;99.90;;;;;;4990228;28;20045;-75
2020/12/18 05:59:22;;;;;;;11.13;8.55;;;4.80;99.90;;;;;;4989946;28;20030;-75
2020/12/18 06:01:50;;;;;;;9.45;6.88;;;4.90;99.90;;;;;;4989954;28;20509;-75
2020/12/18 06:04:15;;;;;;;9.77;7.00;;;5.10;99.90;;;;;;4988242;28;20030;-75
2020/12/18 06:06:52;;;;;;;8.88;6.68;;;5.20;99.90;;;;;;4988550;28;20034;-75
2020/12/18 06:09:23;;;;;;;9.55;7.28;;;5.30;99.90;;;;;;4988467;28;20023;-75
2020/12/18 06:11:49;;;;;;;15.45;10.77;;;5.40;99.90;;;;;;4988316;28;20189;-75
2020/12/18 06:14:16;;;;;;;13.82;9.75;;;5.40;99.90;;;;;;4987750;28;20393;-74
2020/12/18 06:16:53;;;;;;;17.33;10.82;;;5.40;99.90;;;;;;4989175;28;20061;-76
2020/12/18 06:19:21;;;;;;;15.60;10.83;;;5.40;99.90;;;;;;4989627;28;20030;-75
2020/12/18 06:21:54;;;;;;;15.93;11.27;;;5.10;99.90;;;;;;4988010;28;20066;-76
2020/12/18 06:24:20;;;;;;;14.95;11.07;;;4.50;99.90;;;;;;4987957;28;20027;-75
2020/12/18 06:26:46;;;;;;;14.65;11.35;;;4.10;99.90;;;;;;4987720;28;20030;-75
2020/12/18 06:29:17;;;;;;;14.73;10.80;;;3.80;99.90;;;;;;4987688;28;20034;-75
2020/12/18 06:31:42;;;;;;;16.50;11.50;;;4.00;99.90;;;;;;4988922;28;20026;-75
2020/12/18 06:34:10;;;;;;;15.18;11.48;;;4.00;99.90;;;;;;4987676;28;20033;-75
2020/12/18 06:36:48;;;;;;;;;;;3.90;99.90;;;;;;4988799;28;20031;-76
2020/12/18 06:39:34;;;;;;;16.88;11.82;;;3.80;99.90;;;;;;4987584;28;19913;-75
2020/12/18 06:42:16;;;;;;;19.45;13.90;;;4.10;99.90;;;;;;4989063;28;20018;-75
2020/12/18 06:44:42;;;;;;;17.60;12.75;;;4.10;99.90;;;;;;4988618;28;20030;-75
2020/12/18 06:47:13;;;;;;;13.00;10.10;;;4.10;99.90;;;;;;4988921;28;20022;-76
2020/12/18 06:50:00;;;;;;;19.85;10.77;;;4.40;99.90;;;;;;4988975;28;20033;-75
2020/12/18 06:52:47;;;;;;;14.98;11.02;;;4.30;99.90;;;;;;4989039;28;20666;-75
2020/12/18 06:55:15;;;;;;;12.80;9.23;;;4.10;99.90;;;;;;4988324;28;20034;-76
2020/12/18 06:57:41;;;;;;;13.13;9.70;;;4.30;99.90;;;;;;4987507;28;20053;-75
2020/12/18 07:00:25;;;;;;;13.77;9.50;;;4.30;99.90;;;;;;4987322;28;20026;-76
2020/12/18 07:02:51;;;;;;;15.15;10.18;;;4.20;99.90;;;;;;4988545;28;20101;-74
2020/12/18 07:05:37;;;;;;;14.70;10.27;;;4.20;99.90;;;;;;4987548;28;20057;-75
2020/12/18 07:08:11;;;;;;;16.15;11.40;;;4.30;99.90;;;;;;4988618;28;20433;-74
2020/12/18 07:10:38;;;;;;;18.35;12.02;;;4.00;99.90;;;;;;4987696;28;20345;-74
2020/12/18 07:13:06;;;;;;;23.58;12.15;;;3.90;99.90;;;;;;4987682;28;20046;-76
2020/12/18 07:15:46;;;;;;;14.48;10.73;;;4.00;99.90;;;;;;4987525;28;20338;-76
2020/12/18 07:18:20;;;;;;;18.42;11.82;;;4.10;99.90;;;;;;4987565;28;20373;-78
2020/12/18 07:20:54;;;;;;;21.77;14.50;;;3.90;99.90;;;;;;4988553;28;20069;-75
2020/12/18 07:23:22;;;;;;;19.35;12.35;;;3.80;99.90;;;;;;4988987;28;20038;-75
2020/12/18 07:25:49;;;;;;;18.05;11.88;;;3.80;99.90;;;;;;4989591;28;20050;-75
2020/12/18 07:28:15;;;;;;;17.85;11.77;;;3.90;99.90;;;;;;4989528;28;20029;-75
2020/12/18 07:30:43;;;;;;;18.50;12.43;;;4.00;99.90;;;;;;4988358;28;20030;-76
2020/12/18 07:33:10;;;;;;;15.57;10.25;;;3.90;99.90;;;;;;4989468;28;20030;-75
2020/12/18 07:35:41;;;;;;;16.73;10.80;;;4.10;99.90;;;;;;4994623;28;20036;-75
2020/12/18 07:38:32;;;;;;;18.35;12.48;;;4.10;99.90;;;;;;4993727;28;20030;-75
2020/12/18 07:41:02;;;;;;;17.15;11.38;;;4.10;99.90;;;;;;4992307;28;20097;-75
2020/12/18 07:43:33;;;;;;;14.35;9.70;;;4.20;99.90;;;;;;4992450;28;20022;-75
2020/12/18 07:46:06;;;;;;;16.63;10.63;;;4.40;99.90;;;;;;4992029;28;20050;-76
2020/12/18 07:48:37;;;;;;;17.67;11.88;;;4.50;99.90;;;;;;4992424;28;20030;-77
2020/12/18 07:51:08;;;;;;;17.00;11.45;;;4.20;99.90;;;;;;4992284;28;20449;-74
2020/12/18 07:53:36;;;;;;;15.32;11.25;;;4.00;99.90;;;;;;4992137;28;20101;-75
2020/12/18 07:56:03;;;;;;;16.08;10.63;;;3.80;99.90;;;;;;4990571;28;20033;-74
2020/12/18 07:58:29;;;;;;;15.57;10.68;;;3.70;99.90;;;;;;4990901;28;20041;-75
2020/12/18 08:01:09;;;;;;;17.00;11.73;;;3.90;99.90;;;;;;4991730;28;20426;-75
2020/12/18 08:03:36;;;;;;;17.23;11.02;;;3.90;99.90;;;;;;4991891;28;20033;-75
2020/12/18 08:06:12;;;;;;;16.27;11.23;;;3.90;99.90;;;;;;4989733;28;20058;-75
2020/12/18 08:08:38;;;;;;;16.27;11.65;;;3.90;99.90;;;;;;4991284;28;20030;-75
2020/12/18 08:11:04;;;;;;;18.00;11.07;;;4.00;99.90;;;;;;4991921;28;20085;-75
2020/12/18 08:13:31;;;;;;;20.08;12.93;;;4.20;99.90;;;;;;4991856;28;20026;-75
2020/12/18 08:16:11;;;;;;;15.18;11.30;;;4.20;99.90;;;;;;4991595;28;20073;-75
2020/12/18 08:18:38;;;;;;;21.27;14.80;;;4.20;99.90;;;;;;4990303;28;20037;-75
2020/12/18 08:21:05;;;;;;;18.13;14.35;;;4.10;99.90;;;;;;4990431;28;20137;-75
2020/12/18 08:23:35;;;;;;;21.70;15.88;;;4.10;99.90;;;;;;4992171;28;20027;-74
2020/12/18 08:26:04;;;;;;;22.67;15.73;;;4.30;99.90;;;;;;4991346;28;20022;-74
2020/12/18 08:28:31;;;;;;;25.90;18.45;;;4.30;99.90;;;;;;4991289;28;20049;-75
2020/12/18 08:31:05;;;;;;;23.05;15.00;;;4.20;99.90;;;;;;4990731;28;20514;-74
2020/12/18 08:33:34;;;;;;;21.95;14.48;;;4.40;99.90;;;;;;4991732;28;20060;-74
2020/12/18 08:36:00;;;;;;;21.30;15.82;;;4.50;99.90;;;;;;4991224;28;20030;-74
2020/12/18 08:38:26;;;;;;;16.92;13.20;;;4.60;99.90;;;;;;4990086;28;20033;-75
2020/12/18 08:40:55;;;;;;;16.42;11.30;;;4.90;99.90;;;;;;4991232;28;20397;-74
2020/12/18 08:43:21;;;;;;;16.63;10.93;;;5.00;99.90;;;;;;4991072;28;20029;-75
2020/12/18 08:45:46;;;;;;;15.20;10.85;;;5.20;99.90;;;;;;4988573;28;20023;-74
2020/12/18 08:48:18;;;;;;;16.40;11.32;;;5.30;99.90;;;;;;4989858;28;20446;-74
2020/12/18 08:50:43;;;;;;;17.90;11.70;;;5.40;99.90;;;;;;4989332;28;20030;-74
2020/12/18 08:53:16;;;;;;;13.25;10.05;;;5.50;99.90;;;;;;4991151;28;20488;-75
2020/12/18 08:55:41;;;;;;;16.98;9.65;;;5.60;99.90;;;;;;4989666;28;20037;-75
2020/12/18 08:58:09;;;;;;;12.82;9.05;;;5.70;99.90;;;;;;4988229;28;20544;-76
2020/12/18 09:00:35;;;;;;;;;;;5.80;99.90;;;;;;4991192;28;20034;-77
2020/12/18 09:03:02;;;;;;;15.18;10.95;;;5.90;99.90;;;;;;4989282;28;19917;-75
2020/12/18 09:05:29;;;;;;;16.03;10.53;;;6.00;99.90;;;;;;4990916;28;20206;-76
2020/12/18 09:08:15;;;;;;;14.75;10.05;;;6.10;99.90;;;;;;5009361;28;20022;-76
2020/12/18 09:10:52;;;;;;;10.40;6.10;;;6.30;99.90;;;;;;5007896;28;20081;-76
2020/12/18 09:13:26;;;;;;;11.63;8.27;;;6.50;99.90;;;;;;5008819;28;20057;-76
2020/12/18 09:16:00;;;;;;;14.35;9.55;;;6.80;99.90;;;;;;5008592;28;20033;-77
2020/12/18 09:18:31;;;;;;;13.13;9.48;;;7.10;99.90;;;;;;5010092;28;20025;-75
2020/12/18 09:21:14;;;;;;;12.55;9.20;;;7.40;99.90;;;;;;5009163;28;20408;-75
2020/12/18 09:23:41;;;;;;;13.93;9.60;;;7.90;99.90;;;;;;5009802;28;20398;-75
2020/12/18 09:26:07;;;;;;;11.67;8.37;;;8.30;99.90;;;;;;5008858;28;20096;-76
2020/12/18 09:28:38;;;;;;;11.60;8.32;;;8.60;99.90;;;;;;5009121;28;20049;-75
2020/12/18 09:31:06;;;;;;;11.45;7.53;;;9.10;99.90;;;;;;5008052;28;20050;-75
2020/12/18 09:33:35;;;;;;;9.23;6.57;;;9.70;99.90;;;;;;5008016;28;20436;-75
2020/12/18 09:36:10;;;;;;;11.35;7.10;;;10.20;99.90;;;;;;5008529;28;20088;-76
2020/12/18 09:38:42;;;;;;;10.52;7.32;;;10.70;99.90;;;;;;5007717;28;20041;-75
2020/12/18 09:41:21;;;;;;;8.68;5.85;;;11.20;99.90;;;;;;5009443;28;20104;-76
2020/12/18 09:43:47;;;;;;;12.20;5.88;;;11.60;99.90;;;;;;5009036;28;20475;-75
2020/12/18 09:46:13;;;;;;;7.68;6.00;;;11.90;99.90;;;;;;5006939;28;20022;-76
2020/12/18 09:48:47;;;;;;;10.23;6.00;;;11.90;99.90;;;;;;5007957;28;20426;-76
2020/12/18 09:51:14;;;;;;;11.60;6.07;;;11.90;99.90;;;;;;5007387;28;20373;-77
2020/12/18 09:53:39;;;;;;;9.43;6.07;;;12.10;99.90;;;;;;5009087;28;20163;-76
2020/12/18 09:56:09;;;;;;;8.05;5.80;;;12.40;99.90;;;;;;5007325;28;20487;-76
2020/12/18 09:58:35;;;;;;;9.00;5.80;;;12.80;99.90;;;;;;5007170;28;20509;-75
2020/12/18 10:01:00;;;;;;;7.90;5.78;;;13.20;99.90;;;;;;5008801;28;20037;-75
2020/12/18 10:03:26;;;;;;;8.15;6.00;;;13.40;99.90;;;;;;5008515;28;20495;-78
2020/12/18 10:05:51;;;;;;;12.60;5.78;;;14.00;99.40;;;;;;5008464;28;20029;-75
2020/12/18 10:08:17;;;;;;;7.72;5.82;;;14.40;98.10;;;;;;5007427;28;20053;-76
2020/12/18 10:10:43;;;;;;;9.55;5.90;;;14.70;97.20;;;;;;5008745;28;20022;-75
2020/12/18 10:13:09;;;;;;;10.40;6.90;;;14.80;96.60;;;;;;5007186;28;20029;-77
2020/12/18 10:15:34;;;;;;;11.50;6.88;;;14.80;95.90;;;;;;5008181;28;20057;-75
2020/12/18 10:18:00;;;;;;;10.25;6.43;;;14.80;95.50;;;;;;5008814;28;20443;-76
2020/12/18 10:20:26;;;;;;;14.57;9.93;;;15.10;95.30;;;;;;5007044;28;20731;-76
2020/12/18 10:22:52;;;;;;;12.07;7.20;;;15.40;94.80;;;;;;5008679;28;20026;-75
2020/12/18 10:25:18;;;;;;;15.45;7.07;;;15.40;93.60;;;;;;5008131;28;20068;-76
2020/12/18 10:27:44;;;;;;;11.80;6.85;;;15.40;93.30;;;;;;5007194;28;20030;-77
2020/12/18 10:30:10;;;;;;;14.73;6.90;;;15.50;93.50;;;;;;5008458;28;20493;-78
2020/12/18 10:32:36;;;;;;;10.15;6.85;;;15.70;92.50;;;;;;5007046;28;20026;-76
2020/12/18 10:35:04;;;;;;;10.63;6.53;;;16.00;92.40;;;;;;5006998;28;20072;-78
2020/12/18 10:37:30;;;;;;;10.07;6.40;;;16.40;91.40;;;;;;5007339;28;20029;-76
2020/12/18 10:39:56;;;;;;;9.80;6.88;;;16.60;90.50;;;;;;5006675;28;20037;-76
2020/12/18 10:42:21;;;;;;;11.88;6.25;;;16.70;90.50;;;;;;4999209;28;20026;-76
2020/12/18 10:44:47;;;;;;;9.60;5.60;;;16.90;89.60;;;;;;4986806;28;20018;-77
2020/12/18 10:47:13;;;;;;;7.80;5.50;;;17.20;87.00;;;;;;4987388;28;20022;-77
2020/12/18 10:49:39;;;;;;;8.68;5.47;;;17.20;85.70;;;;;;4988271;28;20042;-77
2020/12/18 10:52:05;;;;;;;10.52;5.75;;;17.30;84.30;;;;;;4986928;28;20481;-76
2020/12/18 10:54:31;;;;;;;9.38;5.72;;;17.20;84.70;;;;;;4987712;28;20022;-76
2020/12/18 10:56:57;;;;;;;9.38;5.90;;;16.80;85.60;;;;;;4986981;28;20033;-77
2020/12/18 10:59:24;;;;;;;11.52;5.95;;;16.90;85.00;;;;;;4988643;28;20053;-77
2020/12/18 11:01:53;;;;;;;;;;;17.00;85.70;;;;;;4989075;28;20101;-78
2020/12/18 11:04:19;;;;;;;7.43;5.57;;;16.90;84.90;;;;;;4985721;28;19924;-77
2020/12/18 11:06:45;;;;;;;7.97;5.40;;;17.10;86.60;;;;;;4986650;28;20027;-76
2020/12/18 11:09:11;;;;;;;9.65;5.38;;;17.10;83.80;;;;;;4987322;28;20038;-77
2020/12/18 11:11:37;;;;;;;7.15;5.13;;;16.70;82.80;;;;;;4988061;28;20029;-76
2020/12/18 11:14:02;;;;;;;6.38;4.60;;;16.10;85.70;;;;;;4988002;28;20116;-75
2020/12/18 11:16:28;;;;;;;8.20;5.90;;;16.20;87.20;;;;;;4987675;28;20113;-74
2020/12/18 11:18:54;;;;;;;9.50;5.75;;;16.10;87.00;;;;;;4986339;28;20169;-75
2020/12/18 11:21:20;;;;;;;10.73;5.30;;;15.80;86.80;;;;;;4986921;28;20042;-76
2020/12/18 11:23:46;;;;;;;8.63;5.90;;;15.60;88.40;;;;;;4987075;28;20545;-77
2020/12/18 11:26:11;;;;;;;8.15;5.32;;;14.50;90.80;;;;;;4984811;28;20030;-77
2020/12/18 11:28:38;;;;;;;10.57;5.68;;;14.10;92.30;;;;;;4988341;28;20061;-75
2020/12/18 11:31:05;;;;;;;8.52;6.10;;;13.80;93.00;;;;;;4988071;28;20035;-77
2020/12/18 11:33:31;;;;;;;8.35;5.43;;;12.90;96.50;;;;;;4987846;28;20045;-75
2020/12/18 11:35:57;;;;;;;8.20;5.65;;;13.20;95.40;;;;;;4985643;28;20022;-77
2020/12/18 11:38:23;;;;;;;9.57;5.70;;;13.90;94.40;;;;;;4986676;28;20034;-77
2020/12/18 11:40:49;;;;;;;8.40;5.40;;;14.40;92.90;;;;;;4986405;28;20741;-77
2020/12/18 11:43:14;;;;;;;6.90;5.07;;;14.80;92.90;;;;;;4986552;28;20029;-76
2020/12/18 11:45:40;;;;;;;9.13;5.30;;;15.10;91.70;;;;;;4987171;28;20089;-75
2020/12/18 11:48:06;;;;;;;7.15;5.00;;;15.40;91.10;;;;;;4987751;28;20030;-77
2020/12/18 11:50:32;;;;;;;6.47;4.90;;;15.60;90.20;;;;;;4987524;28;20033;-77
2020/12/18 11:52:58;;;;;;;10.82;5.47;;;15.40;90.90;;;;;;4985753;28;20084;-77
2020/12/18 11:55:25;;;;;;;8.60;5.10;;;15.20;90.30;;;;;;4987465;28;20462;-76
2020/12/18 11:57:51;;;;;;;8.20;5.30;;;14.90;91.30;;;;;;4986361;28;20756;-77
2020/12/18 12:00:20;;;;;;;9.65;5.72;;;14.70;92.30;;;;;;4986432;28;20089;-77
2020/12/18 12:02:52;;;;;;;11.18;5.78;;;14.50;92.30;;;;;;4987631;28;20061;-75
2020/12/18 12:05:19;;;;;;;9.20;5.47;;;14.20;92.80;;;;;;4987506;28;20034;-76
2020/12/18 12:07:46;;;;;;;7.93;5.70;;;14.20;93.00;;;;;;4987999;28;20033;-77
2020/12/18 12:10:13;;;;;;;8.38;4.85;;;14.50;92.60;;;;;;4987065;28;20049;-79
2020/12/18 12:12:39;;;;;;;9.70;5.72;;;14.90;93.10;;;;;;4986102;28;20026;-77
2020/12/18 12:15:06;;;;;;;9.35;6.15;;;15.60;91.80;;;;;;4986498;28;20114;-77
2020/12/18 12:17:32;;;;;;;10.23;6.40;;;15.70;91.40;;;;;;4986226;28;20118;-79
2020/12/18 12:19:58;;;;;;;8.75;5.55;;;15.00;92.20;;;;;;4986150;28;20034;-80
2020/12/18 12:22:23;;;;;;;9.27;5.65;;;15.80;91.20;;;;;;4989250;28;20080;-78
2020/12/18 12:24:51;;;;;;;8.68;5.65;;;16.10;90.20;;;;;;4990592;28;20030;-78
2020/12/18 12:27:20;;;;;;;9.25;5.82;;;15.00;91.60;;;;;;4989303;28;20065;-79
2020/12/18 12:29:46;;;;;;;6.82;5.10;;;14.70;92.60;;;;;;4990856;28;20103;-78
2020/12/18 12:32:11;;;;;;;6.32;4.57;;;15.40;90.90;;;;;;4990879;28;20463;-78
2020/12/18 12:34:37;;;;;;;8.07;5.18;;;15.90;90.60;;;;;;4989295;28;20125;-78
2020/12/18 12:37:03;;;;;;;7.45;5.15;;;16.00;89.50;;;;;;4990852;28;20480;-77
2020/12/18 12:39:28;;;;;;;8.32;5.45;;;15.80;90.60;;;;;;4990671;28;20039;-77
2020/12/18 12:41:54;;;;;;;7.55;5.00;;;16.20;89.70;;;;;;4989383;28;20048;-77
2020/12/18 12:44:20;;;;;;;6.75;4.05;;;16.50;87.50;;;;;;4990202;28;20149;-78
2020/12/18 12:46:45;;;;;;;8.63;4.80;;;16.70;86.80;;;;;;4989308;28;20054;-77
2020/12/18 12:49:11;;;;;;;6.68;4.53;;;16.70;85.30;;;;;;4990154;28;20034;-77
2020/12/18 12:51:37;;;;;;;7.18;5.00;;;16.50;86.60;;;;;;4989063;28;20033;-78
2020/12/18 12:54:03;;;;;;;8.35;5.00;;;16.50;86.90;;;;;;4988409;28;20426;-77
2020/12/18 12:56:28;;;;;;;9.07;5.25;;;16.40;86.10;;;;;;4990137;28;20056;-76
2020/12/18 12:58:54;;;;;;;6.82;4.57;;;16.30;89.10;;;;;;4990493;28;20765;-77
2020/12/18 13:01:20;;;;;;;8.90;5.30;;;16.10;87.90;;;;;;4990248;28;20030;-77
2020/12/18 13:03:45;;;;;;;8.55;5.40;;;15.60;89.00;;;;;;4988658;28;20034;-78